Terminal Aerodrome Forecast
Issued by NWS

Home | Current Version | Previous Version | Text Only | Print | Product List | Glossary On
Versions: 1 2 3 4 5 6 7 8 9 10 11 12
000
FTUS46 KHNX 221100
TAFMER
TAF
KMER 221132Z 2212/2312 33004KT P6SM FEW120 SCT250
      TEMPO 2301/2305 34011KT=

USA.gov is the U.S. government's official web portal to all federal, state and local government web resources and services.